Time;durP1;ratioP1;P1;durP2;ratioP2;P2;SDS_P1;SDS_P2;PMS_P1;PMS_P2;Temp;Humidity;BMP_temperature;BMP_pressure;BME280_temperature;BME280_humidity;BME280_pressure;Samples;Min_cycle;Max_cycle;Signal;HPM_P1;HPM_P2
2021/05/27 00:01:01;;;;;;;9.77;7.80;;;;;;;;;;6275810;22;20403;-81
2021/05/27 00:03:28;;;;;;;9.03;6.83;;;;;;;;;;6276135;22;20400;-81
2021/05/27 00:05:55;;;;;;;11.37;8.03;;;;;;;;;;6273515;22;20554;-81
2021/05/27 00:08:22;;;;;;;11.03;7.63;;;;;;;;;;6273415;22;20908;-81
2021/05/27 00:10:48;;;;;;;9.90;7.60;;;;;;;;;;6269116;22;20684;-80
2021/05/27 00:13:15;;;;;;;11.30;7.67;;;;;;;;;;6272551;22;20400;-81
2021/05/27 00:15:43;;;;;;;12.73;8.00;;;;;;;;;;6270691;22;20408;-81
2021/05/27 00:18:10;;;;;;;10.07;7.60;;;;;;;;;;6270397;22;20398;-81
2021/05/27 00:20:37;;;;;;;8.90;7.00;;;;;;;;;;6273898;22;20400;-81
2021/05/27 00:23:04;;;;;;;9.93;7.90;;;;;;;;;;6273698;22;20766;-81
2021/05/27 00:25:30;;;;;;;9.33;6.83;;;;;;;;;;6269721;22;20436;-82
2021/05/27 00:27:57;;;;;;;10.27;7.53;;;;;;;;;;6270880;22;20474;-81
2021/05/27 00:30:26;;;;;;;11.57;7.93;;;;;;;;;;6271327;22;20420;-81
2021/05/27 00:32:54;;;;;;;9.07;7.17;;;;;;;;;;6266451;22;20400;-81
2021/05/27 00:35:21;;;;;;;10.70;7.67;;;;;;;;;;6238085;22;20809;-81
2021/05/27 00:37:47;;;;;;;9.20;7.00;;;;;;;;;;6269404;22;20450;-81
2021/05/27 00:40:16;;;;;;;10.23;8.30;;;;;;;;;;6270832;22;20977;-81
2021/05/27 00:42:45;;;;;;;11.33;9.00;;;;;;;;;;6244247;22;20472;-82
2021/05/27 00:45:14;;;;;;;10.23;7.40;;;;;;;;;;6271950;22;20451;-81
2021/05/27 00:47:41;;;;;;;11.53;7.57;;;;;;;;;;6271355;22;20400;-80
2021/05/27 00:50:10;;;;;;;13.30;8.53;;;;;;;;;;6274608;22;20424;-81
2021/05/27 00:52:37;;;;;;;12.63;8.47;;;;;;;;;;6274679;22;20453;-81
2021/05/27 00:55:23;;;;;;;11.20;8.03;;;;;;;;;;6269015;22;20396;-82
2021/05/27 01:00:53;;;;;;;12.67;8.87;;;;;;;;;;6246828;22;20414;-81
2021/05/27 01:03:21;;;;;;;15.13;7.93;;;;;;;;;;6273966;22;20435;-82
2021/05/27 01:05:48;;;;;;;11.23;9.00;;;;;;;;;;6274174;22;20470;-83
2021/05/27 01:08:15;;;;;;;14.30;8.30;;;;;;;;;;6246128;22;20395;-82
2021/05/27 01:10:42;;;;;;;11.20;8.97;;;;;;;;;;6272712;22;20889;-82
2021/05/27 01:13:09;;;;;;;12.57;8.93;;;;;;;;;;6269812;22;20474;-82
2021/05/27 01:15:38;;;;;;;11.93;8.97;;;;;;;;;;6274127;22;20396;-84
2021/05/27 01:18:11;;;;;;;10.10;8.70;;;;;;;;;;6268967;22;20427;-83
2021/05/27 01:20:38;;;;;;;13.20;8.40;;;;;;;;;;6270882;22;20400;-82
2021/05/27 01:23:07;;;;;;;13.20;9.30;;;;;;;;;;6273116;22;20396;-83
2021/05/27 01:25:33;;;;;;;15.03;9.37;;;;;;;;;;6271765;22;20516;-83
2021/05/27 01:28:01;;;;;;;14.60;9.27;;;;;;;;;;6274696;22;20399;-83
2021/05/27 01:30:27;;;;;;;13.70;9.17;;;;;;;;;;6272786;22;20502;-83
2021/05/27 01:32:54;;;;;;;10.47;8.07;;;;;;;;;;6273617;22;20400;-85
2021/05/27 01:35:22;;;;;;;17.10;8.90;;;;;;;;;;6248670;22;20406;-83
2021/05/27 01:37:50;;;;;;;11.60;7.63;;;;;;;;;;6270560;22;20890;-84
2021/05/27 01:40:20;;;;;;;12.33;8.03;;;;;;;;;;6269449;22;20416;-82
2021/05/27 01:42:47;;;;;;;14.17;8.53;;;;;;;;;;6246082;22;20487;-81
2021/05/27 01:45:14;;;;;;;9.53;8.60;;;;;;;;;;6273384;22;20465;-82
2021/05/27 01:47:41;;;;;;;12.17;9.10;;;;;;;;;;6271934;22;20886;-83
2021/05/27 01:50:09;;;;;;;15.67;9.53;;;;;;;;;;6273604;22;20423;-86
2021/05/27 01:52:36;;;;;;;11.70;8.37;;;;;;;;;;6273557;22;20437;-81
2021/05/27 01:55:03;;;;;;;15.20;9.00;;;;;;;;;;6265555;22;20905;-85
2021/05/27 01:57:30;;;;;;;12.50;8.07;;;;;;;;;;6274969;22;20422;-83
2021/05/27 01:59:57;;;;;;;11.83;9.00;;;;;;;;;;6276807;22;20416;-82
2021/05/27 02:04:50;;;;;;;15.03;9.17;;;;;;;;;;6272725;22;20436;-84
2021/05/27 02:07:17;;;;;;;9.77;8.47;;;;;;;;;;6272294;22;20175;-85
2021/05/27 02:09:44;;;;;;;14.07;8.40;;;;;;;;;;6272806;22;20810;-84
2021/05/27 02:12:11;;;;;;;12.20;9.43;;;;;;;;;;6274665;22;20400;-85
2021/05/27 02:14:38;;;;;;;16.40;9.50;;;;;;;;;;6266365;22;21158;-85
2021/05/27 02:17:05;;;;;;;13.87;9.27;;;;;;;;;;6274036;22;20401;-83
2021/05/27 02:19:32;;;;;;;13.13;9.90;;;;;;;;;;6249734;22;20416;-83
2021/05/27 02:21:59;;;;;;;11.40;8.60;;;;;;;;;;6273008;22;20410;-82
2021/05/27 02:24:26;;;;;;;11.13;8.20;;;;;;;;;;6273468;22;20486;-84
2021/05/27 02:26:59;;;;;;;11.83;9.03;;;;;;;;;;6273162;22;20408;-84
2021/05/27 02:29:26;;;;;;;12.50;9.33;;;;;;;;;;6271849;22;20422;-83
2021/05/27 02:31:56;;;;;;;14.37;9.70;;;;;;;;;;6268907;22;20486;-86
2021/05/27 02:34:23;;;;;;;13.70;9.20;;;;;;;;;;6274344;22;20513;-83
2021/05/27 02:36:50;;;;;;;15.23;10.37;;;;;;;;;;6269250;22;20407;-81
2021/05/27 02:39:20;;;;;;;12.10;9.33;;;;;;;;;;6270906;22;20420;-83
2021/05/27 02:41:47;;;;;;;11.20;9.73;;;;;;;;;;6247401;22;20392;-83
2021/05/27 02:44:13;;;;;;;11.00;8.40;;;;;;;;;;6275858;22;20912;-84
2021/05/27 02:46:40;;;;;;;12.73;9.53;;;;;;;;;;6271648;22;20487;-83
2021/05/27 02:49:08;;;;;;;15.70;9.33;;;;;;;;;;6239145;22;20423;-84
2021/05/27 02:51:35;;;;;;;11.13;8.83;;;;;;;;;;6270822;22;20427;-82
2021/05/27 02:54:02;;;;;;;11.87;9.37;;;;;;;;;;6273552;22;20400;-81
2021/05/27 02:56:29;;;;;;;17.90;10.97;;;;;;;;;;6270126;22;20458;-84
2021/05/27 02:58:55;;;;;;;11.60;9.50;;;;;;;;;;6272731;22;20924;-82
2021/05/27 03:01:22;;;;;;;11.80;8.73;;;;;;;;;;6271052;22;20477;-83
2021/05/27 03:03:49;;;;;;;10.77;8.90;;;;;;;;;;6267941;22;20469;-83
2021/05/27 03:06:17;;;;;;;13.73;10.20;;;;;;;;;;6244594;22;20404;-86
2021/05/27 03:08:46;;;;;;;15.37;9.40;;;;;;;;;;6271575;22;20507;-82
2021/05/27 03:11:15;;;;;;;11.30;8.60;;;;;;;;;;6241129;22;20408;-82
2021/05/27 03:13:41;;;;;;;12.87;9.47;;;;;;;;;;6266657;22;20424;-84
2021/05/27 03:16:08;;;;;;;12.03;9.10;;;;;;;;;;6267761;22;20968;-82
2021/05/27 03:18:36;;;;;;;11.20;8.90;;;;;;;;;;6270413;22;20443;-83
2021/05/27 03:21:03;;;;;;;12.53;9.43;;;;;;;;;;6271778;22;20522;-81
2021/05/27 03:23:31;;;;;;;10.50;9.00;;;;;;;;;;6268000;22;20408;-85
2021/05/27 03:25:58;;;;;;;15.67;9.90;;;;;;;;;;6272381;22;20439;-82
2021/05/27 03:28:26;;;;;;;13.87;9.27;;;;;;;;;;6271795;22;20403;-81
2021/05/27 03:30:53;;;;;;;12.43;9.37;;;;;;;;;;6264320;22;20427;-84
2021/05/27 03:33:21;;;;;;;13.47;9.43;;;;;;;;;;6269329;22;20450;-82
2021/05/27 03:35:52;;;;;;;12.43;9.10;;;;;;;;;;6270693;22;20444;-82
2021/05/27 03:38:19;;;;;;;14.13;10.73;;;;;;;;;;6269821;22;20491;-82
2021/05/27 03:40:47;;;;;;;10.57;9.50;;;;;;;;;;6269582;22;20411;-83
2021/05/27 03:43:14;;;;;;;15.63;10.10;;;;;;;;;;6268815;22;20396;-83
2021/05/27 03:45:40;;;;;;;14.67;10.57;;;;;;;;;;6263466;22;20443;-81
2021/05/27 03:48:10;;;;;;;13.70;9.37;;;;;;;;;;6269035;22;20400;-84
2021/05/27 03:50:38;;;;;;;14.40;9.50;;;;;;;;;;6271434;22;20400;-82
2021/05/27 03:53:07;;;;;;;14.70;10.73;;;;;;;;;;6265250;22;20424;-83
2021/05/27 03:55:33;;;;;;;11.20;9.70;;;;;;;;;;6272815;22;20400;-84
2021/05/27 03:58:01;;;;;;;14.63;11.13;;;;;;;;;;6272022;22;20977;-82
2021/05/27 04:03:09;;;;;;;12.70;10.20;;;;;;;;;;6248595;22;20745;-83
2021/05/27 04:08:18;;;;;;;14.73;11.10;;;;;;;;;;6270060;22;20403;-86
2021/05/27 04:10:45;;;;;;;15.60;11.10;;;;;;;;;;6241813;22;20408;-83
2021/05/27 04:13:13;;;;;;;13.80;10.70;;;;;;;;;;6271048;22;20400;-82
2021/05/27 04:15:43;;;;;;;9.70;8.70;;;;;;;;;;6273587;22;20517;-82
2021/05/27 04:18:11;;;;;;;12.03;10.07;;;;;;;;;;6267676;22;20406;-86
2021/05/27 04:20:38;;;;;;;13.33;9.97;;;;;;;;;;6239990;22;20403;-84
2021/05/27 04:23:10;;;;;;;11.63;10.47;;;;;;;;;;6244989;22;20903;-84
2021/05/27 04:25:37;;;;;;;12.70;10.10;;;;;;;;;;6268690;22;20448;-84
2021/05/27 04:28:07;;;;;;;16.40;11.70;;;;;;;;;;6271208;22;20396;-81
2021/05/27 04:31:08;;;;;;;12.10;9.93;;;;;;;;;;6246934;22;20400;-83
2021/05/27 04:33:23;;;;;;;15.00;10.37;;;;;;;;;;6252114;22;20881;-82
2021/05/27 04:35:49;;;;;;;14.43;11.80;;;;;;;;;;6276011;22;20713;-84
2021/05/27 04:38:19;;;;;;;15.90;10.90;;;;;;;;;;6270041;22;20396;-83
2021/05/27 04:40:46;;;;;;;12.33;10.17;;;;;;;;;;6269877;22;20393;-84
2021/05/27 04:43:17;;;;;;;12.43;11.07;;;;;;;;;;6244968;22;20407;-82
2021/05/27 04:45:46;;;;;;;14.43;12.20;;;;;;;;;;6267834;22;20451;-84
2021/05/27 04:48:16;;;;;;;12.57;10.90;;;;;;;;;;6270574;22;20893;-82
2021/05/27 04:50:43;;;;;;;13.07;11.67;;;;;;;;;;6268361;22;20486;-83
2021/05/27 04:53:12;;;;;;;14.43;10.90;;;;;;;;;;6275126;22;20491;-84
2021/05/27 04:55:39;;;;;;;13.17;11.30;;;;;;;;;;6249489;22;20454;-83
2021/05/27 04:58:07;;;;;;;13.60;11.37;;;;;;;;;;6244601;22;20461;-83
2021/05/27 05:00:34;;;;;;;13.53;10.67;;;;;;;;;;6273396;22;20403;-83
2021/05/27 05:03:03;;;;;;;12.63;10.90;;;;;;;;;;6270087;22;20396;-84
2021/05/27 05:05:30;;;;;;;12.57;10.83;;;;;;;;;;6271866;22;20455;-83
2021/05/27 05:07:57;;;;;;;15.27;11.23;;;;;;;;;;6244011;22;20877;-83
2021/05/27 05:10:40;;;;;;;13.40;10.80;;;;;;;;;;6245007;22;20420;-85
2021/05/27 05:15:57;;;;;;;12.53;10.83;;;;;;;;;;6275469;22;20454;-83
2021/05/27 05:18:25;;;;;;;14.90;10.83;;;;;;;;;;6274577;22;20396;-83
2021/05/27 05:21:10;;;;;;;15.23;11.50;;;;;;;;;;6272537;22;20491;-84
2021/05/27 05:23:40;;;;;;;16.60;11.33;;;;;;;;;;6270377;22;20403;-84
2021/05/27 05:26:14;;;;;;;14.73;12.47;;;;;;;;;;6268477;22;20444;-85
2021/05/27 05:28:56;;;;;;;15.10;12.07;;;;;;;;;;6270662;22;20419;-83
2021/05/27 05:31:23;;;;;;;17.17;12.27;;;;;;;;;;6266248;22;20396;-84
2021/05/27 05:33:54;;;;;;;12.90;11.60;;;;;;;;;;6264083;22;20433;-83
2021/05/27 05:36:21;;;;;;;14.30;12.07;;;;;;;;;;6271393;22;20503;-84
2021/05/27 05:38:48;;;;;;;16.67;12.73;;;;;;;;;;6276121;22;20943;-83
2021/05/27 05:41:15;;;;;;;15.50;12.83;;;;;;;;;;6272125;22;20431;-81
2021/05/27 05:43:45;;;;;;;12.17;10.70;;;;;;;;;;6269839;22;20484;-84
2021/05/27 05:46:12;;;;;;;15.73;12.70;;;;;;;;;;6272663;22;20450;-79
2021/05/27 05:48:38;;;;;;;12.67;11.30;;;;;;;;;;6270643;22;20719;-82
2021/05/27 05:51:07;;;;;;;16.43;12.27;;;;;;;;;;6271507;22;20424;-80
2021/05/27 05:53:36;;;;;;;16.53;12.03;;;;;;;;;;6269789;22;20407;-82
2021/05/27 05:56:03;;;;;;;13.53;12.13;;;;;;;;;;6269299;22;20472;-82
2021/05/27 05:58:30;;;;;;;17.50;13.70;;;;;;;;;;6245802;22;20424;-81
2021/05/27 06:00:57;;;;;;;13.63;12.17;;;;;;;;;;6273421;22;20448;-80
2021/05/27 06:03:25;;;;;;;15.80;13.37;;;;;;;;;;6272743;22;20404;-81
2021/05/27 06:05:52;;;;;;;14.93;13.20;;;;;;;;;;6274099;22;20941;-81
2021/05/27 06:08:19;;;;;;;15.13;11.60;;;;;;;;;;6272951;22;20396;-81
2021/05/27 06:10:49;;;;;;;15.87;12.87;;;;;;;;;;6276059;22;20897;-80
2021/05/27 06:13:15;;;;;;;14.67;12.43;;;;;;;;;;6270810;22;20396;-83
2021/05/27 06:15:43;;;;;;;15.00;13.40;;;;;;;;;;6276646;22;20404;-82
2021/05/27 06:18:10;;;;;;;14.57;12.70;;;;;;;;;;6251035;22;20885;-80
2021/05/27 06:20:37;;;;;;;17.87;12.10;;;;;;;;;;6267691;22;20483;-82
2021/05/27 06:23:04;;;;;;;13.60;12.20;;;;;;;;;;6272592;22;20913;-82
2021/05/27 06:25:33;;;;;;;17.23;11.97;;;;;;;;;;6272863;22;20444;-80
2021/05/27 06:28:00;;;;;;;16.77;11.77;;;;;;;;;;6265717;22;20392;-80
2021/05/27 06:30:28;;;;;;;16.60;11.23;;;;;;;;;;6247140;22;20447;-81
2021/05/27 06:32:55;;;;;;;19.27;10.50;;;;;;;;;;6274236;22;20470;-81
2021/05/27 06:35:22;;;;;;;19.47;12.37;;;;;;;;;;6274894;22;20721;-82
2021/05/27 06:37:49;;;;;;;13.53;11.00;;;;;;;;;;6246384;22;20410;-83
2021/05/27 06:40:20;;;;;;;14.87;11.53;;;;;;;;;;6267122;22;20534;-79
2021/05/27 06:42:48;;;;;;;13.03;10.30;;;;;;;;;;6270708;22;20776;-80
2021/05/27 06:45:15;;;;;;;16.93;11.10;;;;;;;;;;6268344;22;20502;-81
2021/05/27 06:47:42;;;;;;;15.77;12.50;;;;;;;;;;6274054;22;20720;-81
2021/05/27 06:50:10;;;;;;;16.20;11.20;;;;;;;;;;6269398;22;20939;-82
2021/05/27 06:52:38;;;;;;;14.03;11.80;;;;;;;;;;6274214;22;20801;-80
2021/05/27 06:55:06;;;;;;;17.90;12.00;;;;;;;;;;6243315;22;20404;-80
2021/05/27 06:57:32;;;;;;;14.47;11.60;;;;;;;;;;6270917;22;20889;-79
2021/05/27 07:00:00;;;;;;;16.40;11.93;;;;;;;;;;6274381;22;20422;-81
2021/05/27 07:02:28;;;;;;;14.97;11.60;;;;;;;;;;6267753;22;20482;-81
2021/05/27 07:04:55;;;;;;;14.10;11.20;;;;;;;;;;6264613;22;20447;-78
2021/05/27 07:07:24;;;;;;;13.80;11.30;;;;;;;;;;6272510;22;20400;-78
2021/05/27 07:09:51;;;;;;;17.43;11.03;;;;;;;;;;6273902;22;20448;-78
2021/05/27 07:12:18;;;;;;;14.33;12.37;;;;;;;;;;6269473;22;20930;-78
2021/05/27 07:14:45;;;;;;;17.77;12.07;;;;;;;;;;6276315;22;20431;-77
2021/05/27 07:17:14;;;;;;;14.07;12.00;;;;;;;;;;6276529;22;20400;-77
2021/05/27 07:19:41;;;;;;;19.33;11.63;;;;;;;;;;6272649;22;20945;-80
2021/05/27 07:22:08;;;;;;;24.87;11.87;;;;;;;;;;6276235;22;20396;-80
2021/05/27 07:24:35;;;;;;;13.83;10.77;;;;;;;;;;6268015;22;20448;-83
2021/05/27 07:27:02;;;;;;;18.40;13.43;;;;;;;;;;6268128;22;20402;-82
2021/05/27 07:29:29;;;;;;;17.53;11.37;;;;;;;;;;6272672;22;20420;-82
2021/05/27 07:31:56;;;;;;;16.13;12.43;;;;;;;;;;6270635;22;20412;-80
2021/05/27 07:34:24;;;;;;;18.93;11.87;;;;;;;;;;6271926;22;20407;-80
2021/05/27 07:36:51;;;;;;;14.10;12.30;;;;;;;;;;6274240;22;20436;-80
2021/05/27 07:39:17;;;;;;;15.27;11.87;;;;;;;;;;6266971;22;20454;-80
2021/05/27 07:41:44;;;;;;;15.20;11.83;;;;;;;;;;6271203;22;20405;-83
2021/05/27 07:44:11;;;;;;;13.90;11.47;;;;;;;;;;6274264;22;20401;-81
2021/05/27 07:46:38;;;;;;;14.80;11.20;;;;;;;;;;6271835;22;20962;-78
2021/05/27 07:49:05;;;;;;;17.50;12.47;;;;;;;;;;6274495;22;20746;-79
2021/05/27 07:51:33;;;;;;;13.17;10.70;;;;;;;;;;6269015;22;20432;-80
2021/05/27 07:53:59;;;;;;;12.40;10.07;;;;;;;;;;6275801;22;20777;-84
2021/05/27 07:56:26;;;;;;;12.80;10.90;;;;;;;;;;6271767;22;20410;-80
2021/05/27 07:58:54;;;;;;;12.50;10.47;;;;;;;;;;6272238;22;20444;-82
2021/05/27 08:01:20;;;;;;;17.73;10.83;;;;;;;;;;6273109;22;20434;-82
2021/05/27 08:03:50;;;;;;;14.67;11.00;;;;;;;;;;6268004;22;20478;-79
2021/05/27 08:06:17;;;;;;;17.10;11.13;;;;;;;;;;6275068;22;20446;-80
2021/05/27 08:08:44;;;;;;;15.00;10.17;;;;;;;;;;6275187;22;21112;-82
2021/05/27 08:11:19;;;;;;;12.50;11.03;;;;;;;;;;6274419;22;21308;-85
2021/05/27 08:13:49;;;;;;;12.90;9.93;;;;;;;;;;6276863;22;20450;-78
2021/05/27 08:16:15;;;;;;;12.30;9.70;;;;;;;;;;6273522;22;20401;-81
2021/05/27 08:18:46;;;;;;;12.37;11.07;;;;;;;;;;6271193;22;20426;-82
2021/05/27 08:21:12;;;;;;;14.30;10.50;;;;;;;;;;6275556;22;20941;-81
2021/05/27 08:23:39;;;;;;;14.63;9.90;;;;;;;;;;6273044;22;20410;-80
2021/05/27 08:26:07;;;;;;;14.93;10.80;;;;;;;;;;6271304;22;20448;-78
2021/05/27 08:28:37;;;;;;;16.27;11.30;;;;;;;;;;6273679;22;20746;-80
2021/05/27 08:31:05;;;;;;;13.97;11.77;;;;;;;;;;6272067;22;20404;-79
2021/05/27 08:33:32;;;;;;;21.50;13.23;;;;;;;;;;6246318;22;20392;-80
2021/05/27 08:35:58;;;;;;;19.53;11.20;;;;;;;;;;6242228;22;20518;-80
2021/05/27 08:38:25;;;;;;;20.20;10.90;;;;;;;;;;6268604;22;20937;-79
2021/05/27 08:40:52;;;;;;;14.03;9.67;;;;;;;;;;6272088;22;20731;-81
2021/05/27 08:43:22;;;;;;;16.50;10.07;;;;;;;;;;6265210;22;20407;-82
2021/05/27 08:45:51;;;;;;;12.90;9.73;;;;;;;;;;6264914;22;20444;-81
2021/05/27 08:48:20;;;;;;;14.50;9.33;;;;;;;;;;6273075;22;20404;-81
2021/05/27 08:50:48;;;;;;;13.87;8.97;;;;;;;;;;6275145;22;20400;-82
2021/05/27 08:53:15;;;;;;;10.57;8.50;;;;;;;;;;6244457;22;20397;-81
2021/05/27 08:55:42;;;;;;;15.73;9.53;;;;;;;;;;6266760;22;20427;-81
2021/05/27 08:58:09;;;;;;;16.80;9.17;;;;;;;;;;6243039;22;20491;-82
2021/05/27 09:00:37;;;;;;;14.27;8.57;;;;;;;;;;6269008;22;20491;-82
2021/05/27 09:03:09;;;;;;;10.87;8.03;;;;;;;;;;6267077;22;20400;-80
2021/05/27 09:05:37;;;;;;;12.87;8.77;;;;;;;;;;6271712;22;20481;-81
2021/05/27 09:08:04;;;;;;;13.23;8.10;;;;;;;;;;6271457;22;20407;-83
2021/05/27 09:10:39;;;;;;;11.50;8.43;;;;;;;;;;6270470;22;20496;-81
2021/05/27 09:13:08;;;;;;;12.70;8.17;;;;;;;;;;6250311;22;20397;-81
2021/05/27 09:15:35;;;;;;;11.57;8.17;;;;;;;;;;6272408;22;20699;-82
2021/05/27 09:18:03;;;;;;;13.83;7.50;;;;;;;;;;6273838;22;20427;-79
2021/05/27 09:20:31;;;;;;;14.67;7.40;;;;;;;;;;6277143;22;20401;-79
2021/05/27 09:23:13;;;;;;;10.63;7.90;;;;;;;;;;6248290;22;20396;-81
2021/05/27 09:25:40;;;;;;;10.27;7.50;;;;;;;;;;6248604;22;20443;-80
2021/05/27 09:28:07;;;;;;;11.13;6.97;;;;;;;;;;6273116;22;20405;-79
2021/05/27 09:30:42;;;;;;;9.60;7.00;;;;;;;;;;6265296;22;20402;-83
2021/05/27 09:33:10;;;;;;;9.90;7.47;;;;;;;;;;6267556;22;20886;-82
2021/05/27 09:35:37;;;;;;;11.00;7.03;;;;;;;;;;6270813;22;20418;-80
2021/05/27 09:38:04;;;;;;;11.07;7.10;;;;;;;;;;6275309;22;20488;-81
2021/05/27 09:40:32;;;;;;;13.77;6.67;;;;;;;;;;6243886;22;20411;-80
2021/05/27 09:42:59;;;;;;;6.80;6.10;;;;;;;;;;6273708;22;20768;-81
2021/05/27 09:45:27;;;;;;;11.70;6.40;;;;;;;;;;6271397;22;20447;-81
2021/05/27 09:47:53;;;;;;;9.90;6.60;;;;;;;;;;6271816;22;20415;-83
2021/05/27 09:50:31;;;;;;;10.20;6.37;;;;;;;;;;6269769;22;20420;-81
2021/05/27 09:52:58;;;;;;;10.00;6.03;;;;;;;;;;6269214;22;20435;-81
2021/05/27 09:55:25;;;;;;;7.37;5.40;;;;;;;;;;6268567;22;20487;-82
2021/05/27 09:57:52;;;;;;;6.17;4.90;;;;;;;;;;6267350;22;20491;-81
2021/05/27 10:00:27;;;;;;;9.77;5.17;;;;;;;;;;6271114;22;20569;-80
2021/05/27 10:02:54;;;;;;;8.00;5.10;;;;;;;;;;6243415;22;20932;-83
2021/05/27 10:05:31;;;;;;;10.50;5.33;;;;;;;;;;6271327;22;20443;-82
2021/05/27 10:07:57;;;;;;;8.37;6.17;;;;;;;;;;6268572;22;20430;-85
2021/05/27 10:10:27;;;;;;;10.27;5.20;;;;;;;;;;6266963;22;20952;-82
2021/05/27 10:12:55;;;;;;;10.03;5.37;;;;;;;;;;6270806;22;20404;-83
2021/05/27 10:15:22;;;;;;;9.50;5.73;;;;;;;;;;6266263;22;20423;-79
2021/05/27 10:17:50;;;;;;;8.83;5.33;;;;;;;;;;6271362;22;20404;-86
2021/05/27 10:20:18;;;;;;;10.37;5.60;;;;;;;;;;6268595;22;20781;-84
2021/05/27 10:22:46;;;;;;;11.43;6.40;;;;;;;;;;6267890;22;20400;-84
2021/05/27 10:25:15;;;;;;;7.70;6.10;;;;;;;;;;6267830;22;21327;-83
2021/05/27 10:27:43;;;;;;;9.10;6.00;;;;;;;;;;6269655;22;20400;-82
2021/05/27 10:30:10;;;;;;;11.83;6.00;;;;;;;;;;6243812;22;20428;-81
2021/05/27 10:32:39;;;;;;;9.83;5.70;;;;;;;;;;6269521;22;20396;-82
2021/05/27 10:35:07;;;;;;;9.63;6.20;;;;;;;;;;6244994;22;20400;-81
2021/05/27 10:37:48;;;;;;;5.87;5.17;;;;;;;;;;6266637;22;21201;-82
2021/05/27 10:40:30;;;;;;;11.43;6.20;;;;;;;;;;6244310;22;20655;-81
2021/05/27 10:43:12;;;;;;;8.13;5.70;;;;;;;;;;6265327;22;20555;-81
2021/05/27 10:45:53;;;;;;;12.93;6.70;;;;;;;;;;6245029;22;20449;-82
2021/05/27 10:48:25;;;;;;;7.80;6.17;;;;;;;;;;6268595;22;20408;-83
2021/05/27 10:51:07;;;;;;;7.47;5.77;;;;;;;;;;6266820;22;20406;-82
2021/05/27 10:53:48;;;;;;;13.13;6.93;;;;;;;;;;6266237;22;20396;-82
2021/05/27 10:56:16;;;;;;;7.03;6.20;;;;;;;;;;6268238;22;20422;-81
2021/05/27 10:58:57;;;;;;;8.90;6.10;;;;;;;;;;6242690;22;20507;-80
2021/05/27 11:01:41;;;;;;;9.80;6.17;;;;;;;;;;6241921;22;20480;-82
2021/05/27 11:04:09;;;;;;;8.70;6.43;;;;;;;;;;6247692;22;20454;-82
2021/05/27 11:06:36;;;;;;;7.77;5.23;;;;;;;;;;6272399;22;20448;-82
2021/05/27 11:09:20;;;;;;;7.77;5.83;;;;;;;;;;6245123;22;20447;-82
2021/05/27 11:11:50;;;;;;;9.80;5.60;;;;;;;;;;6263369;22;20431;-81
2021/05/27 11:14:17;;;;;;;8.87;6.13;;;;;;;;;;6270811;22;20401;-82
2021/05/27 11:16:59;;;;;;;8.57;5.97;;;;;;;;;;6245774;22;20400;-81
2021/05/27 11:19:41;;;;;;;8.37;6.60;;;;;;;;;;6271138;22;20794;-84
2021/05/27 11:22:22;;;;;;;7.63;6.57;;;;;;;;;;6239391;22;20419;-83
2021/05/27 11:25:24;;;;;;;10.37;6.07;;;;;;;;;;6247089;22;20928;-83
2021/05/27 11:27:53;;;;;;;9.40;6.37;;;;;;;;;;6247850;22;20838;-82
2021/05/27 11:32:47;;;;;;;11.40;6.47;;;;;;;;;;6271584;22;20396;-82
2021/05/27 11:35:16;;;;;;;8.93;7.00;;;;;;;;;;6271084;22;20407;-82
2021/05/27 11:37:43;;;;;;;9.70;6.97;;;;;;;;;;6271622;22;20881;-83
2021/05/27 11:40:12;;;;;;;9.77;7.20;;;;;;;;;;6266187;22;20416;-84
2021/05/27 11:42:40;;;;;;;11.20;8.40;;;;;;;;;;6245477;22;20470;-84
2021/05/27 11:45:07;;;;;;;9.40;7.60;;;;;;;;;;6273532;22;20467;-83
2021/05/27 11:47:34;;;;;;;14.47;11.33;;;;;;;;;;6271662;22;20400;-82
2021/05/27 11:50:01;;;;;;;12.80;7.40;;;;;;;;;;6272954;22;20875;-82
2021/05/27 11:52:28;;;;;;;13.40;6.73;;;;;;;;;;6275442;22;20925;-83
2021/05/27 11:54:56;;;;;;;7.87;6.43;;;;;;;;;;6270873;22;20475;-83
2021/05/27 11:57:40;;;;;;;10.30;6.60;;;;;;;;;;6271977;22;20960;-83
2021/05/27 12:00:07;;;;;;;8.37;6.77;;;;;;;;;;6268097;22;20929;-83
2021/05/27 12:02:42;;;;;;;7.93;7.00;;;;;;;;;;6269108;22;20459;-85
2021/05/27 12:05:23;;;;;;;16.60;7.90;;;;;;;;;;6265556;22;20528;-81
2021/05/27 12:08:07;;;;;;;14.93;7.43;;;;;;;;;;6244594;22;20412;-83
2021/05/27 12:10:35;;;;;;;19.33;8.27;;;;;;;;;;6252709;22;20938;-83
2021/05/27 12:13:03;;;;;;;20.03;8.40;;;;;;;;;;6272350;22;20458;-84
2021/05/27 12:15:32;;;;;;;14.20;8.20;;;;;;;;;;6271934;22;20406;-85
2021/05/27 12:18:00;;;;;;;16.30;7.47;;;;;;;;;;6271879;22;20889;-85
2021/05/27 12:20:29;;;;;;;9.70;7.40;;;;;;;;;;6267423;22;20470;-83
2021/05/27 12:22:57;;;;;;;10.27;8.43;;;;;;;;;;6264227;22;20417;-83
2021/05/27 12:25:25;;;;;;;13.13;7.50;;;;;;;;;;6264022;22;20941;-84
2021/05/27 12:27:52;;;;;;;21.37;9.20;;;;;;;;;;6272773;22;20777;-84
2021/05/27 12:30:22;;;;;;;11.90;9.20;;;;;;;;;;6273991;22;20431;-83
2021/05/27 12:32:49;;;;;;;16.67;8.80;;;;;;;;;;6265815;22;20487;-84
2021/05/27 12:35:18;;;;;;;9.50;7.70;;;;;;;;;;6273100;22;20407;-82
2021/05/27 12:37:48;;;;;;;11.30;9.00;;;;;;;;;;6272076;22;20696;-83
2021/05/27 12:40:19;;;;;;;16.17;9.33;;;;;;;;;;6268363;22;20450;-83
2021/05/27 12:42:46;;;;;;;17.00;9.40;;;;;;;;;;6247105;22;20417;-83
2021/05/27 12:45:28;;;;;;;13.23;8.77;;;;;;;;;;6273325;22;20908;-84
2021/05/27 12:48:10;;;;;;;11.87;8.90;;;;;;;;;;6248568;22;20399;-84
2021/05/27 12:50:38;;;;;;;13.53;7.77;;;;;;;;;;6276913;22;20432;-83
2021/05/27 12:53:06;;;;;;;11.70;8.30;;;;;;;;;;6272420;22;20874;-84
2021/05/27 12:55:34;;;;;;;11.30;7.60;;;;;;;;;;6268831;22;20443;-86
2021/05/27 12:58:03;;;;;;;11.50;7.07;;;;;;;;;;6274250;22;20410;-83
2021/05/27 13:00:45;;;;;;;7.93;7.23;;;;;;;;;;6275615;22;20403;-83
2021/05/27 13:03:12;;;;;;;10.30;7.00;;;;;;;;;;6270433;22;20494;-84
2021/05/27 13:05:39;;;;;;;14.63;8.10;;;;;;;;;;6275506;22;20554;-83
2021/05/27 13:08:07;;;;;;;14.30;7.30;;;;;;;;;;6270676;22;21054;-83
2021/05/27 13:10:36;;;;;;;12.40;8.93;;;;;;;;;;6274958;22;20488;-84
2021/05/27 13:13:03;;;;;;;10.60;8.10;;;;;;;;;;6270752;22;20405;-83
2021/05/27 13:15:30;;;;;;;8.70;7.50;;;;;;;;;;6270408;22;20436;-83
2021/05/27 13:18:01;;;;;;;11.23;6.63;;;;;;;;;;6248371;22;20409;-83
2021/05/27 13:20:28;;;;;;;7.47;6.20;;;;;;;;;;6274103;22;20419;-78
2021/05/27 13:22:56;;;;;;;9.90;6.97;;;;;;;;;;6275768;22;20765;-79
2021/05/27 13:25:28;;;;;;;8.30;6.60;;;;;;;;;;6276570;22;20950;-81
2021/05/27 13:27:56;;;;;;;7.80;6.50;;;;;;;;;;6241327;22;20789;-83
2021/05/27 13:30:28;;;;;;;6.80;6.10;;;;;;;;;;6277647;22;20391;-83
2021/05/27 13:33:04;;;;;;;12.70;7.03;;;;;;;;;;6273419;22;20404;-81
2021/05/27 13:35:31;;;;;;;8.57;5.83;;;;;;;;;;6270162;22;20400;-83
2021/05/27 13:38:02;;;;;;;10.80;6.07;;;;;;;;;;6273750;22;20411;-83
2021/05/27 13:40:29;;;;;;;8.10;5.40;;;;;;;;;;6244975;22;20498;-85
2021/05/27 13:42:57;;;;;;;10.87;5.30;;;;;;;;;;6247922;22;20578;-83
2021/05/27 13:45:25;;;;;;;7.43;4.80;;;;;;;;;;6274702;22;20478;-85
2021/05/27 13:47:58;;;;;;;8.47;4.57;;;;;;;;;;6250768;22;20484;-86
2021/05/27 13:50:26;;;;;;;7.10;4.70;;;;;;;;;;6277346;22;20491;-84
2021/05/27 13:52:54;;;;;;;7.57;4.70;;;;;;;;;;6267675;22;20439;-83
2021/05/27 13:55:25;;;;;;;11.87;4.17;;;;;;;;;;6270819;22;20721;-83
2021/05/27 13:58:20;;;;;;;7.67;4.77;;;;;;;;;;6268125;22;20722;-83
2021/05/27 14:00:53;;;;;;;7.73;4.47;;;;;;;;;;6242056;22;20404;-84
2021/05/27 14:03:24;;;;;;;6.87;5.23;;;;;;;;;;6272713;22;20453;-83
2021/05/27 14:05:51;;;;;;;6.30;4.23;;;;;;;;;;6272756;22;20509;-86
2021/05/27 14:08:28;;;;;;;8.37;4.80;;;;;;;;;;6269644;22;20375;-85
2021/05/27 14:11:10;;;;;;;8.80;5.60;;;;;;;;;;6277484;22;20397;-85
2021/05/27 14:13:48;;;;;;;5.43;3.90;;;;;;;;;;6249249;22;20584;-88
2021/05/27 14:16:25;;;;;;;;;;;;;;;;;;;;;
2021/05/27 14:18:54;;;;;;;8.53;4.77;;;;;;;;;;6272377;22;20494;-86
2021/05/27 14:22:09;;;;;;;;;;;;;;;;;;;;;
2021/05/27 14:24:39;;;;;;;8.13;4.67;;;;;;;;;;6274066;22;20469;-84
2021/05/27 14:27:07;;;;;;;4.90;4.37;;;;;;;;;;6273150;22;20418;-84
2021/05/27 14:29:35;;;;;;;9.93;5.20;;;;;;;;;;6245383;22;20915;-83
2021/05/27 14:32:03;;;;;;;5.60;4.47;;;;;;;;;;6265870;22;20509;-84
2021/05/27 14:34:33;;;;;;;9.80;4.90;;;;;;;;;;6242378;22;20409;-83
2021/05/27 14:37:00;;;;;;;8.40;4.57;;;;;;;;;;6243375;22;20513;-84
2021/05/27 14:39:27;;;;;;;5.90;4.70;;;;;;;;;;6263391;22;20741;-85
2021/05/27 14:41:55;;;;;;;8.20;4.30;;;;;;;;;;6270213;22;20411;-84
2021/05/27 14:44:22;;;;;;;5.97;4.40;;;;;;;;;;6266541;22;20408;-83
2021/05/27 14:46:50;;;;;;;5.63;4.27;;;;;;;;;;6259905;22;20454;-82
2021/05/27 14:49:17;;;;;;;7.03;4.53;;;;;;;;;;6260461;22;20939;-82
2021/05/27 14:51:45;;;;;;;7.07;4.10;;;;;;;;;;6267919;22;20441;-82
2021/05/27 14:54:11;;;;;;;9.23;4.17;;;;;;;;;;6269567;22;20730;-83
2021/05/27 14:56:38;;;;;;;6.60;4.13;;;;;;;;;;6261362;22;20932;-84
2021/05/27 14:59:05;;;;;;;5.40;4.17;;;;;;;;;;6267880;22;20427;-84